sensor_id;sensor_type;location;lat;lon;timestamp;P1;durP1;ratioP1;P2;durP2;ratioP2
10489;SDS011;35569;48.402;10.670;2022-10-16T00:00:10;2.70;;;2.60;;
10489;SDS011;35569;48.402;10.670;2022-10-16T00:00:43;6.53;;;2.70;;
10489;SDS011;35569;48.402;10.670;2022-10-16T00:01:17;2.63;;;2.50;;
10489;SDS011;35569;48.402;10.670;2022-10-16T00:01:53;2.57;;;2.43;;
10489;SDS011;35569;48.402;10.670;2022-10-16T00:02:26;2.67;;;2.57;;
10489;SDS011;35569;48.402;10.670;2022-10-16T00:03:01;2.67;;;2.57;;
10489;SDS011;35569;48.402;10.670;2022-10-16T00:03:33;2.83;;;2.73;;
10489;SDS011;35569;48.402;10.670;2022-10-16T00:04:08;2.70;;;2.53;;
10489;SDS011;35569;48.402;10.670;2022-10-16T00:04:41;2.50;;;2.40;;
10489;SDS011;35569;48.402;10.670;2022-10-16T00:05:13;2.70;;;2.60;;
10489;SDS011;35569;48.402;10.670;2022-10-16T00:05:48;2.80;;;2.70;;
10489;SDS011;35569;48.402;10.670;2022-10-16T00:06:20;3.00;;;2.90;;
10489;SDS011;35569;48.402;10.670;2022-10-16T00:06:53;2.70;;;2.60;;
10489;SDS011;35569;48.402;10.670;2022-10-16T00:07:28;2.43;;;2.33;;
10489;SDS011;35569;48.402;10.670;2022-10-16T00:08:00;2.57;;;2.47;;
10489;SDS011;35569;48.402;10.670;2022-10-16T00:08:34;2.70;;;2.60;;
10489;SDS011;35569;48.402;10.670;2022-10-16T00:09:07;4.77;;;2.93;;
10489;SDS011;35569;48.402;10.670;2022-10-16T00:09:42;2.50;;;2.40;;
10489;SDS011;35569;48.402;10.670;2022-10-16T00:10:18;2.73;;;2.63;;
10489;SDS011;35569;48.402;10.670;2022-10-16T00:10:50;2.40;;;2.30;;
10489;SDS011;35569;48.402;10.670;2022-10-16T00:11:25;2.80;;;2.70;;
10489;SDS011;35569;48.402;10.670;2022-10-16T00:11:58;2.40;;;2.30;;
10489;SDS011;35569;48.402;10.670;2022-10-16T00:12:30;2.60;;;2.50;;
10489;SDS011;35569;48.402;10.670;2022-10-16T00:13:06;2.40;;;2.30;;
10489;SDS011;35569;48.402;10.670;2022-10-16T00:13:39;2.43;;;2.33;;
10489;SDS011;35569;48.402;10.670;2022-10-16T00:14:13;2.70;;;2.53;;
10489;SDS011;35569;48.402;10.670;2022-10-16T00:14:49;2.80;;;2.70;;
10489;SDS011;35569;48.402;10.670;2022-10-16T00:15:21;2.70;;;2.60;;
10489;SDS011;35569;48.402;10.670;2022-10-16T00:15:54;2.87;;;2.67;;
10489;SDS011;35569;48.402;10.670;2022-10-16T00:16:27;2.57;;;2.47;;
10489;SDS011;35569;48.402;10.670;2022-10-16T00:17:02;2.20;;;2.10;;
10489;SDS011;35569;48.402;10.670;2022-10-16T00:17:34;2.50;;;2.40;;
10489;SDS011;35569;48.402;10.670;2022-10-16T00:18:07;2.43;;;2.33;;
10489;SDS011;35569;48.402;10.670;2022-10-16T00:18:41;2.50;;;2.40;;
10489;SDS011;35569;48.402;10.670;2022-10-16T00:19:14;2.70;;;2.60;;
10489;SDS011;35569;48.402;10.670;2022-10-16T00:19:49;3.10;;;3.00;;
10489;SDS011;35569;48.402;10.670;2022-10-16T00:20:21;3.20;;;3.10;;
10489;SDS011;35569;48.402;10.670;2022-10-16T00:20:53;3.27;;;3.07;;
10489;SDS011;35569;48.402;10.670;2022-10-16T00:21:46;3.40;;;3.30;;
10489;SDS011;35569;48.402;10.670;2022-10-16T00:22:21;3.63;;;3.43;;
10489;SDS011;35569;48.402;10.670;2022-10-16T00:22:53;2.93;;;2.83;;
10489;SDS011;35569;48.402;10.670;2022-10-16T00:23:25;2.97;;;2.83;;
10489;SDS011;35569;48.402;10.670;2022-10-16T00:24:01;2.83;;;2.70;;
10489;SDS011;35569;48.402;10.670;2022-10-16T00:24:36;2.97;;;2.77;;
10489;SDS011;35569;48.402;10.670;2022-10-16T00:25:08;2.97;;;2.87;;
10489;SDS011;35569;48.402;10.670;2022-10-16T00:25:53;3.43;;;3.23;;
10489;SDS011;35569;48.402;10.670;2022-10-16T00:26:27;3.40;;;3.20;;
10489;SDS011;35569;48.402;10.670;2022-10-16T00:27:00;3.57;;;3.40;;
10489;SDS011;35569;48.402;10.670;2022-10-16T00:27:34;2.87;;;2.53;;
10489;SDS011;35569;48.402;10.670;2022-10-16T00:28:07;3.30;;;3.10;;
10489;SDS011;35569;48.402;10.670;2022-10-16T00:28:39;3.00;;;2.90;;
10489;SDS011;35569;48.402;10.670;2022-10-16T00:29:14;3.43;;;3.23;;
10489;SDS011;35569;48.402;10.670;2022-10-16T00:29:49;2.73;;;2.63;;
10489;SDS011;35569;48.402;10.670;2022-10-16T00:30:21;3.10;;;3.00;;
10489;SDS011;35569;48.402;10.670;2022-10-16T00:30:58;2.70;;;2.60;;
10489;SDS011;35569;48.402;10.670;2022-10-16T00:31:34;2.87;;;2.77;;
10489;SDS011;35569;48.402;10.670;2022-10-16T00:32:09;3.20;;;2.90;;
10489;SDS011;35569;48.402;10.670;2022-10-16T00:32:41;2.50;;;2.30;;
10489;SDS011;35569;48.402;10.670;2022-10-16T00:33:13;2.73;;;2.63;;
10489;SDS011;35569;48.402;10.670;2022-10-16T00:33:46;3.43;;;2.87;;
10489;SDS011;35569;48.402;10.670;2022-10-16T00:34:21;2.50;;;2.40;;
10489;SDS011;35569;48.402;10.670;2022-10-16T00:34:53;2.90;;;2.70;;
10489;SDS011;35569;48.402;10.670;2022-10-16T00:35:26;2.40;;;2.30;;
10489;SDS011;35569;48.402;10.670;2022-10-16T00:36:01;2.90;;;2.70;;
10489;SDS011;35569;48.402;10.670;2022-10-16T00:36:33;2.47;;;2.37;;
10489;SDS011;35569;48.402;10.670;2022-10-16T00:37:06;2.67;;;2.57;;
10489;SDS011;35569;48.402;10.670;2022-10-16T00:37:40;2.57;;;2.47;;
10489;SDS011;35569;48.402;10.670;2022-10-16T00:38:13;2.07;;;2.07;;
10489;SDS011;35569;48.402;10.670;2022-10-16T00:38:45;2.13;;;2.03;;
10489;SDS011;35569;48.402;10.670;2022-10-16T00:39:20;2.20;;;2.10;;
10489;SDS011;35569;48.402;10.670;2022-10-16T00:39:52;2.40;;;2.30;;
10489;SDS011;35569;48.402;10.670;2022-10-16T00:40:25;2.30;;;2.20;;
10489;SDS011;35569;48.402;10.670;2022-10-16T00:41:02;2.30;;;2.10;;
10489;SDS011;35569;48.402;10.670;2022-10-16T00:41:34;1.90;;;1.90;;
10489;SDS011;35569;48.402;10.670;2022-10-16T00:42:10;2.43;;;2.23;;
10489;SDS011;35569;48.402;10.670;2022-10-16T00:42:46;2.43;;;2.23;;
10489;SDS011;35569;48.402;10.670;2022-10-16T00:43:32;2.30;;;2.20;;
10489;SDS011;35569;48.402;10.670;2022-10-16T00:45:11;2.23;;;2.13;;
10489;SDS011;35569;48.402;10.670;2022-10-16T00:45:43;2.47;;;2.37;;
10489;SDS011;35569;48.402;10.670;2022-10-16T00:46:16;2.63;;;2.53;;
10489;SDS011;35569;48.402;10.670;2022-10-16T00:46:52;2.20;;;2.10;;
10489;SDS011;35569;48.402;10.670;2022-10-16T00:47:26;2.27;;;2.17;;
10489;SDS011;35569;48.402;10.670;2022-10-16T00:48:00;3.73;;;2.47;;
10489;SDS011;35569;48.402;10.670;2022-10-16T00:48:38;2.43;;;2.33;;
10489;SDS011;35569;48.402;10.670;2022-10-16T00:49:11;2.07;;;1.97;;
10489;SDS011;35569;48.402;10.670;2022-10-16T00:49:44;1.93;;;1.83;;
10489;SDS011;35569;48.402;10.670;2022-10-16T00:50:18;1.70;;;1.60;;
10489;SDS011;35569;48.402;10.670;2022-10-16T00:50:58;2.50;;;2.40;;
10489;SDS011;35569;48.402;10.670;2022-10-16T00:51:32;2.50;;;2.30;;
10489;SDS011;35569;48.402;10.670;2022-10-16T00:52:05;2.70;;;2.53;;
10489;SDS011;35569;48.402;10.670;2022-10-16T00:52:41;2.03;;;1.97;;
10489;SDS011;35569;48.402;10.670;2022-10-16T00:53:15;2.13;;;2.03;;
10489;SDS011;35569;48.402;10.670;2022-10-16T00:53:48;2.47;;;2.37;;
10489;SDS011;35569;48.402;10.670;2022-10-16T00:54:25;2.40;;;2.30;;
10489;SDS011;35569;48.402;10.670;2022-10-16T00:54:58;2.70;;;2.60;;
10489;SDS011;35569;48.402;10.670;2022-10-16T00:55:32;2.40;;;2.30;;
10489;SDS011;35569;48.402;10.670;2022-10-16T00:56:14;2.10;;;2.00;;
10489;SDS011;35569;48.402;10.670;2022-10-16T00:56:47;2.73;;;2.63;;
10489;SDS011;35569;48.402;10.670;2022-10-16T00:57:19;3.10;;;2.40;;
10489;SDS011;35569;48.402;10.670;2022-10-16T00:57:54;2.33;;;2.27;;
10489;SDS011;35569;48.402;10.670;2022-10-16T00:58:26;2.47;;;2.37;;
10489;SDS011;35569;48.402;10.670;2022-10-16T00:58:58;2.50;;;2.40;;
10489;SDS011;35569;48.402;10.670;2022-10-16T00:59:35;2.43;;;2.33;;
10489;SDS011;35569;48.402;10.670;2022-10-16T01:00:10;2.60;;;2.50;;
10489;SDS011;35569;48.402;10.670;2022-10-16T01:00:43;2.80;;;2.70;;
10489;SDS011;35569;48.402;10.670;2022-10-16T01:01:18;1.70;;;1.70;;
10489;SDS011;35569;48.402;10.670;2022-10-16T01:01:51;2.33;;;2.23;;
10489;SDS011;35569;48.402;10.670;2022-10-16T01:02:24;2.47;;;2.37;;
10489;SDS011;35569;48.402;10.670;2022-10-16T01:03:00;2.73;;;2.50;;
10489;SDS011;35569;48.402;10.670;2022-10-16T01:03:35;2.20;;;2.10;;
10489;SDS011;35569;48.402;10.670;2022-10-16T01:04:08;2.80;;;2.70;;
10489;SDS011;35569;48.402;10.670;2022-10-16T01:04:43;2.50;;;2.40;;
10489;SDS011;35569;48.402;10.670;2022-10-16T01:05:18;3.10;;;2.90;;
10489;SDS011;35569;48.402;10.670;2022-10-16T01:05:51;2.60;;;2.50;;
10489;SDS011;35569;48.402;10.670;2022-10-16T01:06:33;2.80;;;2.70;;
10489;SDS011;35569;48.402;10.670;2022-10-16T01:07:10;2.70;;;2.60;;
10489;SDS011;35569;48.402;10.670;2022-10-16T01:07:47;2.67;;;2.53;;
10489;SDS011;35569;48.402;10.670;2022-10-16T01:08:29;2.40;;;2.30;;
10489;SDS011;35569;48.402;10.670;2022-10-16T01:09:09;2.80;;;2.70;;
10489;SDS011;35569;48.402;10.670;2022-10-16T01:09:47;2.40;;;2.30;;
10489;SDS011;35569;48.402;10.670;2022-10-16T01:10:27;2.73;;;2.53;;
10489;SDS011;35569;48.402;10.670;2022-10-16T01:11:05;2.83;;;2.63;;
10489;SDS011;35569;48.402;10.670;2022-10-16T01:11:49;2.60;;;2.50;;
10489;SDS011;35569;48.402;10.670;2022-10-16T01:12:33;2.50;;;2.40;;
10489;SDS011;35569;48.402;10.670;2022-10-16T01:13:14;2.40;;;2.30;;
10489;SDS011;35569;48.402;10.670;2022-10-16T01:13:52;1.93;;;1.83;;
10489;SDS011;35569;48.402;10.670;2022-10-16T01:14:31;1.90;;;1.90;;
10489;SDS011;35569;48.402;10.670;2022-10-16T01:15:10;1.77;;;1.73;;
10489;SDS011;35569;48.402;10.670;2022-10-16T01:15:46;2.37;;;2.20;;
10489;SDS011;35569;48.402;10.670;2022-10-16T01:16:24;2.23;;;2.13;;
10489;SDS011;35569;48.402;10.670;2022-10-16T01:17:02;1.93;;;1.83;;
10489;SDS011;35569;48.402;10.670;2022-10-16T01:17:39;1.60;;;1.60;;
10489;SDS011;35569;48.402;10.670;2022-10-16T01:18:18;2.20;;;2.10;;
10489;SDS011;35569;48.402;10.670;2022-10-16T01:18:54;2.63;;;2.43;;
10489;SDS011;35569;48.402;10.670;2022-10-16T01:19:34;2.10;;;2.00;;
10489;SDS011;35569;48.402;10.670;2022-10-16T01:20:18;2.23;;;1.93;;
10489;SDS011;35569;48.402;10.670;2022-10-16T01:20:55;2.70;;;2.50;;
10489;SDS011;35569;48.402;10.670;2022-10-16T01:21:35;1.93;;;1.83;;
10489;SDS011;35569;48.402;10.670;2022-10-16T01:22:08;1.50;;;1.50;;
10489;SDS011;35569;48.402;10.670;2022-10-16T01:22:47;1.83;;;1.73;;
10489;SDS011;35569;48.402;10.670;2022-10-16T01:23:36;1.90;;;1.90;;
10489;SDS011;35569;48.402;10.670;2022-10-16T01:24:17;1.97;;;1.97;;
10489;SDS011;35569;48.402;10.670;2022-10-16T01:24:57;1.80;;;1.80;;
10489;SDS011;35569;48.402;10.670;2022-10-16T01:25:44;1.93;;;1.83;;
10489;SDS011;35569;48.402;10.670;2022-10-16T01:26:30;1.90;;;1.90;;
10489;SDS011;35569;48.402;10.670;2022-10-16T01:27:12;2.27;;;2.17;;
10489;SDS011;35569;48.402;10.670;2022-10-16T01:27:48;6.57;;;1.87;;
10489;SDS011;35569;48.402;10.670;2022-10-16T01:28:21;2.27;;;2.20;;
10489;SDS011;35569;48.402;10.670;2022-10-16T01:28:54;2.13;;;2.03;;
10489;SDS011;35569;48.402;10.670;2022-10-16T01:29:32;2.53;;;2.00;;
10489;SDS011;35569;48.402;10.670;2022-10-16T01:30:08;1.80;;;1.73;;
10489;SDS011;35569;48.402;10.670;2022-10-16T01:30:42;2.10;;;2.00;;
10489;SDS011;35569;48.402;10.670;2022-10-16T01:31:18;2.20;;;2.10;;
10489;SDS011;35569;48.402;10.670;2022-10-16T01:31:53;1.83;;;1.73;;
10489;SDS011;35569;48.402;10.670;2022-10-16T01:32:29;1.93;;;1.93;;
10489;SDS011;35569;48.402;10.670;2022-10-16T01:33:08;2.27;;;2.17;;
10489;SDS011;35569;48.402;10.670;2022-10-16T01:33:43;2.00;;;1.90;;
10489;SDS011;35569;48.402;10.670;2022-10-16T01:34:18;2.17;;;1.70;;
10489;SDS011;35569;48.402;10.670;2022-10-16T01:34:57;2.23;;;2.13;;
10489;SDS011;35569;48.402;10.670;2022-10-16T01:35:32;2.10;;;2.10;;
10489;SDS011;35569;48.402;10.670;2022-10-16T01:36:09;1.90;;;1.80;;
10489;SDS011;35569;48.402;10.670;2022-10-16T01:36:47;1.80;;;1.70;;
10489;SDS011;35569;48.402;10.670;2022-10-16T01:37:25;2.13;;;2.03;;
10489;SDS011;35569;48.402;10.670;2022-10-16T01:38:02;1.90;;;1.80;;
10489;SDS011;35569;48.402;10.670;2022-10-16T01:38:39;1.83;;;1.83;;
10489;SDS011;35569;48.402;10.670;2022-10-16T01:39:12;1.97;;;1.97;;
10489;SDS011;35569;48.402;10.670;2022-10-16T01:39:45;1.80;;;1.80;;
10489;SDS011;35569;48.402;10.670;2022-10-16T01:40:23;1.60;;;1.60;;
10489;SDS011;35569;48.402;10.670;2022-10-16T01:40:57;1.67;;;1.67;;
10489;SDS011;35569;48.402;10.670;2022-10-16T01:41:32;1.97;;;1.87;;
10489;SDS011;35569;48.402;10.670;2022-10-16T01:42:09;1.77;;;1.77;;
10489;SDS011;35569;48.402;10.670;2022-10-16T01:42:47;1.60;;;1.60;;
10489;SDS011;35569;48.402;10.670;2022-10-16T01:43:22;1.43;;;1.40;;
10489;SDS011;35569;48.402;10.670;2022-10-16T01:44:00;1.50;;;1.50;;
10489;SDS011;35569;48.402;10.670;2022-10-16T01:44:34;1.80;;;1.80;;
10489;SDS011;35569;48.402;10.670;2022-10-16T01:45:08;1.73;;;1.67;;
10489;SDS011;35569;48.402;10.670;2022-10-16T01:45:45;1.40;;;1.40;;
10489;SDS011;35569;48.402;10.670;2022-10-16T01:46:18;1.87;;;1.77;;
10489;SDS011;35569;48.402;10.670;2022-10-16T01:46:52;1.70;;;1.70;;
10489;SDS011;35569;48.402;10.670;2022-10-16T01:47:27;1.90;;;1.90;;
10489;SDS011;35569;48.402;10.670;2022-10-16T01:48:02;1.70;;;1.70;;
10489;SDS011;35569;48.402;10.670;2022-10-16T01:48:37;1.30;;;1.30;;
10489;SDS011;35569;48.402;10.670;2022-10-16T01:49:12;1.50;;;1.50;;
10489;SDS011;35569;48.402;10.670;2022-10-16T01:49:45;1.50;;;1.50;;
10489;SDS011;35569;48.402;10.670;2022-10-16T01:50:18;2.20;;;2.10;;
10489;SDS011;35569;48.402;10.670;2022-10-16T01:50:55;1.40;;;1.40;;
10489;SDS011;35569;48.402;10.670;2022-10-16T01:51:29;1.53;;;1.43;;
10489;SDS011;35569;48.402;10.670;2022-10-16T01:52:03;1.33;;;1.33;;
10489;SDS011;35569;48.402;10.670;2022-10-16T01:52:38;2.50;;;1.93;;
10489;SDS011;35569;48.402;10.670;2022-10-16T01:53:16;1.43;;;1.43;;
10489;SDS011;35569;48.402;10.670;2022-10-16T01:53:50;1.83;;;1.83;;
10489;SDS011;35569;48.402;10.670;2022-10-16T01:54:25;1.17;;;1.17;;
10489;SDS011;35569;48.402;10.670;2022-10-16T01:55:02;1.43;;;1.43;;
10489;SDS011;35569;48.402;10.670;2022-10-16T01:55:36;1.83;;;1.73;;
10489;SDS011;35569;48.402;10.670;2022-10-16T01:56:11;1.50;;;1.50;;
10489;SDS011;35569;48.402;10.670;2022-10-16T01:56:46;1.70;;;1.60;;
10489;SDS011;35569;48.402;10.670;2022-10-16T01:57:23;1.40;;;1.30;;
10489;SDS011;35569;48.402;10.670;2022-10-16T01:57:57;1.70;;;1.70;;
10489;SDS011;35569;48.402;10.670;2022-10-16T01:58:33;1.40;;;1.40;;
10489;SDS011;35569;48.402;10.670;2022-10-16T01:59:09;1.63;;;1.60;;
10489;SDS011;35569;48.402;10.670;2022-10-16T01:59:44;1.53;;;1.53;;
10489;SDS011;35569;48.402;10.670;2022-10-16T02:00:21;1.20;;;1.20;;
10489;SDS011;35569;48.402;10.670;2022-10-16T02:00:54;1.40;;;1.30;;
10489;SDS011;35569;48.402;10.670;2022-10-16T02:01:27;1.80;;;1.70;;
10489;SDS011;35569;48.402;10.670;2022-10-16T02:02:04;1.57;;;1.57;;
10489;SDS011;35569;48.402;10.670;2022-10-16T02:02:39;1.50;;;1.50;;
10489;SDS011;35569;48.402;10.670;2022-10-16T02:03:16;1.80;;;1.70;;
10489;SDS011;35569;48.402;10.670;2022-10-16T02:03:53;1.60;;;1.60;;
10489;SDS011;35569;48.402;10.670;2022-10-16T02:04:28;1.70;;;1.70;;
10489;SDS011;35569;48.402;10.670;2022-10-16T02:05:04;1.80;;;1.70;;
10489;SDS011;35569;48.402;10.670;2022-10-16T02:05:44;1.80;;;1.80;;
10489;SDS011;35569;48.402;10.670;2022-10-16T02:06:17;1.30;;;1.30;;
10489;SDS011;35569;48.402;10.670;2022-10-16T02:06:53;1.57;;;1.57;;
10489;SDS011;35569;48.402;10.670;2022-10-16T02:07:25;1.80;;;1.80;;
10489;SDS011;35569;48.402;10.670;2022-10-16T02:07:57;1.50;;;1.50;;
10489;SDS011;35569;48.402;10.670;2022-10-16T02:08:35;1.60;;;1.57;;
10489;SDS011;35569;48.402;10.670;2022-10-16T02:09:11;1.40;;;1.40;;
10489;SDS011;35569;48.402;10.670;2022-10-16T02:09:44;1.40;;;1.40;;
10489;SDS011;35569;48.402;10.670;2022-10-16T02:10:16;1.53;;;1.53;;
10489;SDS011;35569;48.402;10.670;2022-10-16T02:10:52;1.87;;;1.87;;
10489;SDS011;35569;48.402;10.670;2022-10-16T02:11:24;1.43;;;1.43;;
10489;SDS011;35569;48.402;10.670;2022-10-16T02:11:56;1.37;;;1.37;;
10489;SDS011;35569;48.402;10.670;2022-10-16T02:12:36;1.33;;;1.33;;
10489;SDS011;35569;48.402;10.670;2022-10-16T02:13:11;1.40;;;1.40;;
10489;SDS011;35569;48.402;10.670;2022-10-16T02:13:48;1.40;;;1.40;;
10489;SDS011;35569;48.402;10.670;2022-10-16T02:14:23;1.53;;;1.43;;
10489;SDS011;35569;48.402;10.670;2022-10-16T02:14:56;1.27;;;1.27;;
10489;SDS011;35569;48.402;10.670;2022-10-16T02:15:31;1.50;;;1.50;;
10489;SDS011;35569;48.402;10.670;2022-10-16T02:16:03;1.77;;;1.67;;
10489;SDS011;35569;48.402;10.670;2022-10-16T02:16:37;1.40;;;1.40;;
10489;SDS011;35569;48.402;10.670;2022-10-16T02:17:16;1.53;;;1.53;;
10489;SDS011;35569;48.402;10.670;2022-10-16T02:17:49;2.00;;;1.90;;
10489;SDS011;35569;48.402;10.670;2022-10-16T02:18:21;1.60;;;1.60;;
10489;SDS011;35569;48.402;10.670;2022-10-16T02:19:00;1.27;;;1.27;;
10489;SDS011;35569;48.402;10.670;2022-10-16T02:19:33;1.77;;;1.77;;
10489;SDS011;35569;48.402;10.670;2022-10-16T02:20:05;1.43;;;1.43;;
10489;SDS011;35569;48.402;10.670;2022-10-16T02:20:42;1.57;;;1.57;;
10489;SDS011;35569;48.402;10.670;2022-10-16T02:21:19;1.73;;;1.63;;
10489;SDS011;35569;48.402;10.670;2022-10-16T02:21:57;1.37;;;1.37;;
10489;SDS011;35569;48.402;10.670;2022-10-16T02:22:32;1.80;;;1.73;;
10489;SDS011;35569;48.402;10.670;2022-10-16T02:23:08;1.30;;;1.30;;
10489;SDS011;35569;48.402;10.670;2022-10-16T02:23:48;1.30;;;1.30;;
10489;SDS011;35569;48.402;10.670;2022-10-16T02:24:24;1.30;;;1.30;;
10489;SDS011;35569;48.402;10.670;2022-10-16T02:25:01;1.20;;;1.20;;
10489;SDS011;35569;48.402;10.670;2022-10-16T02:25:40;1.10;;;1.10;;
10489;SDS011;35569;48.402;10.670;2022-10-16T02:26:15;1.40;;;1.40;;
10489;SDS011;35569;48.402;10.670;2022-10-16T02:26:51;1.60;;;1.50;;
10489;SDS011;35569;48.402;10.670;2022-10-16T02:27:27;1.57;;;1.47;;
10489;SDS011;35569;48.402;10.670;2022-10-16T02:28:07;1.40;;;1.40;;
10489;SDS011;35569;48.402;10.670;2022-10-16T02:28:42;1.40;;;1.30;;
10489;SDS011;35569;48.402;10.670;2022-10-16T02:29:20;1.53;;;1.53;;
10489;SDS011;35569;48.402;10.670;2022-10-16T02:29:58;1.60;;;1.60;;
10489;SDS011;35569;48.402;10.670;2022-10-16T02:30:33;1.67;;;1.57;;
10489;SDS011;35569;48.402;10.670;2022-10-16T02:31:11;1.20;;;1.20;;
10489;SDS011;35569;48.402;10.670;2022-10-16T02:31:44;1.60;;;1.50;;
10489;SDS011;35569;48.402;10.670;2022-10-16T02:32:19;1.40;;;1.40;;
10489;SDS011;35569;48.402;10.670;2022-10-16T02:32:56;0.97;;;0.97;;
10489;SDS011;35569;48.402;10.670;2022-10-16T02:33:30;1.40;;;1.40;;
10489;SDS011;35569;48.402;10.670;2022-10-16T02:34:03;1.50;;;1.40;;
10489;SDS011;35569;48.402;10.670;2022-10-16T02:34:39;1.40;;;1.40;;
10489;SDS011;35569;48.402;10.670;2022-10-16T02:35:12;1.07;;;1.07;;
10489;SDS011;35569;48.402;10.670;2022-10-16T02:35:46;1.63;;;1.63;;
10489;SDS011;35569;48.402;10.670;2022-10-16T02:36:22;1.20;;;1.20;;
10489;SDS011;35569;48.402;10.670;2022-10-16T02:36:55;1.20;;;1.20;;
10489;SDS011;35569;48.402;10.670;2022-10-16T02:37:28;1.20;;;1.20;;
10489;SDS011;35569;48.402;10.670;2022-10-16T02:38:03;1.20;;;1.20;;
10489;SDS011;35569;48.402;10.670;2022-10-16T02:38:36;1.20;;;1.20;;
10489;SDS011;35569;48.402;10.670;2022-10-16T02:39:09;1.23;;;1.23;;
10489;SDS011;35569;48.402;10.670;2022-10-16T02:39:45;1.23;;;1.23;;
10489;SDS011;35569;48.402;10.670;2022-10-16T02:40:17;1.20;;;1.20;;
10489;SDS011;35569;48.402;10.670;2022-10-16T02:40:55;0.87;;;0.87;;
10489;SDS011;35569;48.402;10.670;2022-10-16T02:41:30;1.40;;;1.40;;
10489;SDS011;35569;48.402;10.670;2022-10-16T02:42:03;1.23;;;1.23;;
10489;SDS011;35569;48.402;10.670;2022-10-16T02:42:35;1.20;;;1.20;;
10489;SDS011;35569;48.402;10.670;2022-10-16T02:43:14;1.50;;;1.47;;
10489;SDS011;35569;48.402;10.670;2022-10-16T02:43:47;1.60;;;1.50;;
10489;SDS011;35569;48.402;10.670;2022-10-16T02:44:19;1.33;;;1.23;;
10489;SDS011;35569;48.402;10.670;2022-10-16T02:44:54;1.20;;;1.20;;
10489;SDS011;35569;48.402;10.670;2022-10-16T02:45:26;1.07;;;1.07;;
10489;SDS011;35569;48.402;10.670;2022-10-16T02:45:58;1.20;;;1.20;;
10489;SDS011;35569;48.402;10.670;2022-10-16T02:46:33;1.33;;;1.33;;
10489;SDS011;35569;48.402;10.670;2022-10-16T02:47:06;2.30;;;1.37;;
10489;SDS011;35569;48.402;10.670;2022-10-16T02:47:38;1.30;;;1.30;;
10489;SDS011;35569;48.402;10.670;2022-10-16T02:48:13;1.23;;;1.23;;
10489;SDS011;35569;48.402;10.670;2022-10-16T02:48:46;1.33;;;1.33;;
10489;SDS011;35569;48.402;10.670;2022-10-16T02:49:18;1.10;;;1.10;;
10489;SDS011;35569;48.402;10.670;2022-10-16T02:49:53;1.57;;;1.57;;
10489;SDS011;35569;48.402;10.670;2022-10-16T02:50:25;1.10;;;1.10;;
10489;SDS011;35569;48.402;10.670;2022-10-16T02:50:58;1.50;;;1.40;;
10489;SDS011;35569;48.402;10.670;2022-10-16T02:51:32;1.50;;;1.40;;
10489;SDS011;35569;48.402;10.670;2022-10-16T02:52:05;1.00;;;1.00;;
10489;SDS011;35569;48.402;10.670;2022-10-16T02:52:37;1.20;;;1.20;;
10489;SDS011;35569;48.402;10.670;2022-10-16T02:53:12;0.93;;;0.93;;
10489;SDS011;35569;48.402;10.670;2022-10-16T02:53:44;1.07;;;1.07;;
10489;SDS011;35569;48.402;10.670;2022-10-16T02:54:16;1.17;;;1.17;;
10489;SDS011;35569;48.402;10.670;2022-10-16T02:54:49;1.40;;;1.40;;
10489;SDS011;35569;48.402;10.670;2022-10-16T02:55:24;1.00;;;1.00;;
10489;SDS011;35569;48.402;10.670;2022-10-16T02:55:56;1.10;;;1.07;;
10489;SDS011;35569;48.402;10.670;2022-10-16T02:56:28;1.40;;;1.30;;
10489;SDS011;35569;48.402;10.670;2022-10-16T02:57:03;1.10;;;1.10;;
10489;SDS011;35569;48.402;10.670;2022-10-16T02:57:36;1.20;;;1.20;;
10489;SDS011;35569;48.402;10.670;2022-10-16T02:58:08;1.30;;;1.30;;
10489;SDS011;35569;48.402;10.670;2022-10-16T02:58:46;1.10;;;1.10;;
10489;SDS011;35569;48.402;10.670;2022-10-16T02:59:18;0.97;;;0.97;;
10489;SDS011;35569;48.402;10.670;2022-10-16T02:59:51;1.10;;;1.10;;
10489;SDS011;35569;48.402;10.670;2022-10-16T03:00:25;1.40;;;1.40;;
10489;SDS011;35569;48.402;10.670;2022-10-16T03:00:58;1.00;;;1.00;;
10489;SDS011;35569;48.402;10.670;2022-10-16T03:01:30;1.00;;;1.00;;
10489;SDS011;35569;48.402;10.670;2022-10-16T03:02:07;1.03;;;1.03;;
10489;SDS011;35569;48.402;10.670;2022-10-16T03:02:39;0.90;;;0.90;;
10489;SDS011;35569;48.402;10.670;2022-10-16T03:03:11;0.90;;;0.90;;
10489;SDS011;35569;48.402;10.670;2022-10-16T03:03:47;1.00;;;1.00;;
10489;SDS011;35569;48.402;10.670;2022-10-16T03:04:19;1.00;;;1.00;;
10489;SDS011;35569;48.402;10.670;2022-10-16T03:04:51;0.90;;;0.90;;
10489;SDS011;35569;48.402;10.670;2022-10-16T03:05:23;0.97;;;0.97;;
10489;SDS011;35569;48.402;10.670;2022-10-16T03:05:58;0.90;;;0.90;;
10489;SDS011;35569;48.402;10.670;2022-10-16T03:06:30;0.90;;;0.90;;
10489;SDS011;35569;48.402;10.670;2022-10-16T03:07:03;0.93;;;0.93;;
10489;SDS011;35569;48.402;10.670;2022-10-16T03:07:38;1.20;;;1.20;;
10489;SDS011;35569;48.402;10.670;2022-10-16T03:08:10;1.00;;;0.90;;
10489;SDS011;35569;48.402;10.670;2022-10-16T03:08:42;1.00;;;1.00;;
10489;SDS011;35569;48.402;10.670;2022-10-16T03:09:17;1.10;;;1.10;;
10489;SDS011;35569;48.402;10.670;2022-10-16T03:09:49;1.10;;;1.10;;
10489;SDS011;35569;48.402;10.670;2022-10-16T03:10:21;1.20;;;1.20;;
10489;SDS011;35569;48.402;10.670;2022-10-16T03:10:57;1.07;;;1.07;;
10489;SDS011;35569;48.402;10.670;2022-10-16T03:11:32;1.13;;;1.13;;
10489;SDS011;35569;48.402;10.670;2022-10-16T03:12:04;1.40;;;1.40;;
10489;SDS011;35569;48.402;10.670;2022-10-16T03:12:39;1.93;;;1.83;;
10489;SDS011;35569;48.402;10.670;2022-10-16T03:13:12;2.43;;;2.33;;
10489;SDS011;35569;48.402;10.670;2022-10-16T03:13:46;3.47;;;2.97;;
10489;SDS011;35569;48.402;10.670;2022-10-16T03:14:21;2.37;;;2.10;;
10489;SDS011;35569;48.402;10.670;2022-10-16T03:14:54;3.70;;;3.50;;
10489;SDS011;35569;48.402;10.670;2022-10-16T03:15:26;4.70;;;4.30;;
10489;SDS011;35569;48.402;10.670;2022-10-16T03:16:02;4.80;;;4.40;;
10489;SDS011;35569;48.402;10.670;2022-10-16T03:16:35;4.17;;;3.87;;
10489;SDS011;35569;48.402;10.670;2022-10-16T03:17:07;2.30;;;1.70;;
10489;SDS011;35569;48.402;10.670;2022-10-16T03:17:42;1.23;;;1.23;;
10489;SDS011;35569;48.402;10.670;2022-10-16T03:18:14;1.63;;;1.63;;
10489;SDS011;35569;48.402;10.670;2022-10-16T03:18:47;1.63;;;1.60;;
10489;SDS011;35569;48.402;10.670;2022-10-16T03:19:20;1.10;;;1.10;;
10489;SDS011;35569;48.402;10.670;2022-10-16T03:19:55;1.33;;;1.33;;
10489;SDS011;35569;48.402;10.670;2022-10-16T03:20:27;1.00;;;1.00;;
10489;SDS011;35569;48.402;10.670;2022-10-16T03:20:59;1.30;;;1.30;;
10489;SDS011;35569;48.402;10.670;2022-10-16T03:21:34;1.40;;;1.40;;
10489;SDS011;35569;48.402;10.670;2022-10-16T03:22:06;1.50;;;1.50;;
10489;SDS011;35569;48.402;10.670;2022-10-16T03:22:38;0.97;;;0.97;;
10489;SDS011;35569;48.402;10.670;2022-10-16T03:23:13;1.13;;;1.13;;
10489;SDS011;35569;48.402;10.670;2022-10-16T03:23:46;1.27;;;1.27;;
10489;SDS011;35569;48.402;10.670;2022-10-16T03:24:18;1.37;;;1.37;;
10489;SDS011;35569;48.402;10.670;2022-10-16T03:24:53;0.93;;;0.90;;
10489;SDS011;35569;48.402;10.670;2022-10-16T03:25:25;0.90;;;0.90;;
10489;SDS011;35569;48.402;10.670;2022-10-16T03:25:57;0.87;;;0.87;;
10489;SDS011;35569;48.402;10.670;2022-10-16T03:26:32;1.07;;;1.07;;
10489;SDS011;35569;48.402;10.670;2022-10-16T03:27:04;1.03;;;1.03;;
10489;SDS011;35569;48.402;10.670;2022-10-16T03:27:37;1.00;;;1.00;;
10489;SDS011;35569;48.402;10.670;2022-10-16T03:28:12;1.23;;;1.23;;